createdAt,value
2019-04-05T00:01:44.717Z,13.60
2019-04-05T00:04:13.184Z,14.63
2019-04-05T00:06:41.652Z,15.80
2019-04-05T00:09:10.097Z,15.07
2019-04-05T00:11:38.580Z,15.17
2019-04-05T00:14:07.033Z,15.03
2019-04-05T00:16:35.540Z,17.27
2019-04-05T00:19:04.054Z,13.77
2019-04-05T00:21:32.628Z,13.80
2019-04-05T00:24:01.066Z,13.00
2019-04-05T00:26:29.528Z,13.97
2019-04-05T00:28:57.990Z,16.30
2019-04-05T00:31:26.469Z,18.53
2019-04-05T00:33:54.924Z,19.27
2019-04-05T00:36:23.442Z,16.60
2019-04-05T00:38:51.895Z,12.40
2019-04-05T00:41:20.361Z,15.83
2019-04-05T00:43:48.798Z,18.97
2019-04-05T00:46:17.286Z,15.80
2019-04-05T00:48:45.723Z,17.67
2019-04-05T00:51:14.154Z,16.33
2019-04-05T00:53:42.645Z,18.60
2019-04-05T00:56:11.144Z,16.70
2019-04-05T00:58:39.595Z,14.80
2019-04-05T01:01:08.058Z,18.63
2019-04-05T01:03:36.584Z,16.17
2019-04-05T01:06:05.023Z,18.10
2019-04-05T01:08:33.507Z,18.57
2019-04-05T01:11:02.028Z,18.17
2019-04-05T01:13:30.742Z,17.20
2019-04-05T01:15:59.197Z,19.70
2019-04-05T01:18:27.739Z,17.20
2019-04-05T01:20:59.258Z,16.00
2019-04-05T01:23:27.802Z,16.10
2019-04-05T01:25:59.322Z,17.13
2019-04-05T01:28:27.853Z,17.97
2019-04-05T01:30:56.321Z,15.70
2019-04-05T01:33:24.793Z,19.30
2019-04-05T01:35:53.286Z,16.43
2019-04-05T01:38:21.870Z,18.90
2019-04-05T01:40:50.557Z,17.10
2019-04-05T01:43:19.126Z,16.20
2019-04-05T01:45:53.669Z,18.83
2019-04-05T01:48:17.901Z,16.17
2019-04-05T01:50:46.350Z,14.57
2019-04-05T01:53:14.829Z,17.77
2019-04-05T01:55:43.312Z,18.27
2019-04-05T01:58:11.826Z,16.90
2019-04-05T02:00:40.263Z,16.17
2019-04-05T02:03:08.743Z,18.30
2019-04-05T02:05:37.298Z,20.93
2019-04-05T02:08:05.881Z,17.30
2019-04-05T02:10:34.495Z,16.23
2019-04-05T02:13:02.993Z,16.50
2019-04-05T02:15:33.493Z,16.77
2019-04-05T02:18:01.960Z,16.73
2019-04-05T02:20:30.414Z,17.90
2019-04-05T02:22:59.086Z,17.07
2019-04-05T02:25:27.573Z,14.47
2019-04-05T02:27:56.102Z,14.90
2019-04-05T02:30:25.284Z,16.17
2019-04-05T02:32:53.874Z,14.53
2019-04-05T02:35:22.446Z,18.27
2019-04-05T02:37:50.963Z,18.30
2019-04-05T02:40:21.013Z,16.53
2019-04-05T02:42:52.597Z,16.27
2019-04-05T02:45:22.507Z,19.07
2019-04-05T02:47:54.060Z,17.27
2019-04-05T02:50:25.094Z,14.37
2019-04-05T02:52:56.652Z,17.10
2019-04-05T02:55:26.934Z,16.23
2019-04-05T02:57:56.413Z,16.33
2019-04-05T03:00:25.156Z,18.70
2019-04-05T03:02:54.455Z,19.80
2019-04-05T03:05:23.198Z,15.33
2019-04-05T03:07:51.946Z,16.07
2019-04-05T03:10:56.260Z,16.90
2019-04-05T03:13:26.491Z,16.60
2019-04-05T03:15:58.349Z,16.10
2019-04-05T03:18:28.765Z,18.43
2019-04-05T03:21:00.281Z,19.50
2019-04-05T03:23:31.284Z,17.30
2019-04-05T03:26:02.814Z,18.40
2019-04-05T03:28:34.456Z,19.33
2019-04-05T03:31:03.031Z,18.40
2019-04-05T03:33:32.073Z,15.63
2019-04-05T03:36:00.796Z,17.43
2019-04-05T03:38:29.411Z,17.67
2019-04-05T03:40:58.118Z,16.97
2019-04-05T03:43:26.715Z,17.40
2019-04-05T03:45:55.223Z,19.43
2019-04-05T03:50:56.879Z,15.47
2019-04-05T03:53:37.398Z,21.80
2019-04-05T03:56:18.252Z,17.87
2019-04-05T03:58:59.307Z,19.03
2019-04-05T04:01:40.227Z,17.23
2019-04-05T04:04:21.058Z,19.07
2019-04-05T04:07:02.193Z,19.00
2019-04-05T04:09:43.049Z,19.87
2019-04-05T04:12:24.009Z,20.43
2019-04-05T04:15:23.782Z,23.40
2019-04-05T04:18:03.974Z,22.53
2019-04-05T04:24:17.882Z,18.73
2019-04-05T04:27:05.749Z,25.57
2019-04-05T04:29:46.843Z,19.47
2019-04-05T04:32:27.252Z,19.43
2019-04-05T04:35:08.239Z,20.53
2019-04-05T04:37:49.254Z,19.90
2019-04-05T04:40:29.945Z,18.87
2019-04-05T04:43:10.914Z,23.73
2019-04-05T04:45:51.466Z,21.90
2019-04-05T04:48:32.522Z,23.20
2019-04-05T04:51:13.596Z,23.63
2019-04-05T04:53:54.467Z,22.30
2019-04-05T04:56:35.358Z,23.17
2019-04-05T04:59:16.494Z,18.67
2019-04-05T05:01:57.558Z,20.57
2019-04-05T05:04:38.679Z,18.90
2019-04-05T05:07:19.609Z,19.37
2019-04-05T05:10:03.116Z,16.47
2019-04-05T05:12:42.520Z,16.77
2019-04-05T05:15:23.355Z,19.07
2019-04-05T05:18:04.467Z,18.63
2019-04-05T05:20:45.122Z,17.47
2019-04-05T05:23:25.654Z,17.93
2019-04-05T05:26:06.473Z,19.57
2019-04-05T05:28:47.705Z,26.63
2019-04-05T05:31:28.260Z,40.83
2019-04-05T05:34:08.859Z,20.80
2019-04-05T05:36:49.790Z,21.33
2019-04-05T05:39:30.702Z,22.87
2019-04-05T05:42:11.611Z,22.03
2019-04-05T05:44:52.674Z,23.37
2019-04-05T05:47:33.469Z,21.67
2019-04-05T05:50:14.078Z,23.77
2019-04-05T05:52:54.636Z,17.93
2019-04-05T05:55:35.546Z,20.40
2019-04-05T05:58:16.438Z,20.33
2019-04-05T06:00:57.399Z,23.50
2019-04-05T06:03:37.787Z,22.00
2019-04-05T06:06:18.659Z,20.87
2019-04-05T06:08:59.691Z,25.20
2019-04-05T06:11:40.382Z,22.70
2019-04-05T06:14:21.432Z,19.47
2019-04-05T06:17:02.198Z,19.07
2019-04-05T06:19:42.982Z,17.70
2019-04-05T06:22:23.754Z,21.73
2019-04-05T06:25:04.686Z,18.60
2019-04-05T06:27:45.741Z,17.97
2019-04-05T06:30:28.733Z,21.93
2019-04-05T06:33:09.523Z,21.43
2019-04-05T06:35:50.370Z,22.47
2019-04-05T06:38:31.310Z,22.50
2019-04-05T06:41:11.907Z,23.23
2019-04-05T06:43:52.542Z,21.97
2019-04-05T06:46:33.384Z,22.20
2019-04-05T06:49:14.405Z,24.20
2019-04-05T06:51:55.483Z,21.57
2019-04-05T06:54:36.038Z,23.17
2019-04-05T06:57:17.151Z,20.83
2019-04-05T06:59:58.052Z,22.50
2019-04-05T07:02:38.795Z,24.03
2019-04-05T07:05:21.068Z,23.17
2019-04-05T07:08:02.440Z,24.23
2019-04-05T07:10:45.192Z,22.93
2019-04-05T07:13:27.605Z,25.40
2019-04-05T07:16:11.020Z,31.67
2019-04-05T07:18:51.246Z,30.03
2019-04-05T07:21:31.886Z,35.70
2019-04-05T07:24:12.734Z,35.03
2019-04-05T07:26:53.422Z,37.30
2019-04-05T07:29:34.358Z,38.30
2019-04-05T07:32:14.919Z,38.07
2019-04-05T07:34:55.488Z,42.10
2019-04-05T07:37:36.455Z,45.37
2019-04-05T07:40:17.340Z,45.03
2019-04-05T07:42:58.317Z,48.13
2019-04-05T07:45:39.123Z,47.53
2019-04-05T07:48:07.601Z,45.67
2019-04-05T07:50:55.459Z,57.50
2019-04-05T07:53:43.255Z,47.27
2019-04-05T07:56:24.382Z,49.97
2019-04-05T07:59:05.267Z,54.07
2019-04-05T08:01:46.293Z,51.70
2019-04-05T08:04:26.673Z,51.60
2019-04-05T08:07:07.031Z,55.60
2019-04-05T08:09:48.004Z,49.23
2019-04-05T08:15:41.773Z,53.33
2019-04-05T08:18:22.339Z,52.93
2019-04-05T08:21:03.089Z,54.50
2019-04-05T08:23:43.858Z,53.27
2019-04-05T08:26:24.542Z,52.30
2019-04-05T08:29:05.499Z,53.37
2019-04-05T08:31:46.590Z,51.63
2019-04-05T08:34:27.491Z,53.50
2019-04-05T08:37:08.546Z,50.00
2019-04-05T08:39:49.296Z,51.37
2019-04-05T08:42:30.232Z,54.03
2019-04-05T08:45:11.171Z,52.53
2019-04-05T08:47:51.596Z,51.77
2019-04-05T08:50:32.010Z,59.03
2019-04-05T08:53:12.762Z,58.73
2019-04-05T08:55:53.635Z,57.80
2019-04-05T08:58:34.596Z,61.00
2019-04-05T09:01:15.400Z,56.43
2019-04-05T09:03:55.741Z,55.13
2019-04-05T09:06:36.565Z,58.70
2019-04-05T09:09:17.435Z,57.00
2019-04-05T09:11:57.756Z,61.87
2019-04-05T09:14:38.359Z,55.20
2019-04-05T09:17:19.302Z,56.47
2019-04-05T09:20:00.231Z,60.63
2019-04-05T09:22:40.796Z,59.17
2019-04-05T09:25:21.770Z,60.03
2019-04-05T09:28:02.658Z,66.20
2019-04-05T09:30:43.685Z,73.77
2019-04-05T09:33:24.430Z,67.13
2019-04-05T09:36:05.422Z,68.87
2019-04-05T09:38:46.045Z,72.07
2019-04-05T09:41:26.899Z,69.93
2019-04-05T09:44:07.656Z,73.87
2019-04-05T09:46:51.025Z,76.70
2019-04-05T09:49:36.736Z,71.90
2019-04-05T09:52:13.313Z,74.73
2019-04-05T09:54:53.790Z,82.67
2019-04-05T09:57:34.572Z,78.87
2019-04-05T10:00:16.795Z,74.13
2019-04-05T10:02:57.599Z,82.87
2019-04-05T10:05:38.511Z,87.77
2019-04-05T10:08:18.974Z,78.33
2019-04-05T10:10:59.890Z,78.47
2019-04-05T10:13:40.543Z,79.20
2019-04-05T10:16:21.600Z,79.93
2019-04-05T10:19:02.545Z,85.63
2019-04-05T10:21:43.571Z,92.17
2019-04-05T10:24:24.455Z,83.43
2019-04-05T10:27:05.475Z,83.77
2019-04-05T10:29:49.357Z,86.70
2019-04-05T10:32:29.388Z,85.70
2019-04-05T10:35:09.927Z,80.00
2019-04-05T10:37:50.165Z,91.37
2019-04-05T10:40:30.887Z,96.27
2019-04-05T10:43:11.855Z,84.60
2019-04-05T10:45:52.805Z,76.50
2019-04-05T10:48:35.419Z,89.17
2019-04-05T10:51:16.323Z,89.60
2019-04-05T10:53:56.865Z,91.60
2019-04-05T10:56:37.538Z,77.73
2019-04-05T10:59:18.490Z,80.67
2019-04-05T11:01:59.306Z,78.63
2019-04-05T11:04:39.968Z,83.57
2019-04-05T11:07:20.532Z,85.07
2019-04-05T11:12:44.391Z,85.20
2019-04-05T11:15:25.470Z,91.17
2019-04-05T11:18:06.023Z,93.10
2019-04-05T11:20:49.011Z,92.27
2019-04-05T11:23:29.109Z,87.67
2019-04-05T11:26:10.217Z,91.77
2019-04-05T11:28:50.674Z,105.40
2019-04-05T11:31:31.594Z,93.47
2019-04-05T11:34:12.235Z,92.97
2019-04-05T11:36:53.168Z,69.37
2019-04-05T11:39:34.093Z,74.63
2019-04-05T11:42:15.014Z,71.17
2019-04-05T11:44:56.091Z,68.30
2019-04-05T11:47:36.726Z,75.10
2019-04-05T11:50:17.635Z,75.43
2019-04-05T11:52:58.742Z,67.37
2019-04-05T11:55:39.372Z,63.10
2019-04-05T11:58:20.420Z,64.07
2019-04-05T12:01:23.314Z,59.20
2019-04-05T12:04:03.012Z,55.63
2019-04-05T12:06:43.578Z,57.77
2019-04-05T12:09:24.358Z,56.80
2019-04-05T12:12:05.082Z,58.17
2019-04-05T12:14:45.879Z,55.57
2019-04-05T12:17:26.482Z,56.03
2019-04-05T12:20:07.384Z,54.93
2019-04-05T12:22:48.364Z,53.40
2019-04-05T12:25:29.135Z,53.87
2019-04-05T12:28:10.729Z,53.97
2019-04-05T12:30:51.892Z,50.90
2019-04-05T12:33:32.739Z,49.93
2019-04-05T12:36:13.687Z,51.63
2019-04-05T12:38:54.481Z,53.00
2019-04-05T12:41:35.277Z,55.80
2019-04-05T12:44:15.923Z,52.20
2019-04-05T12:46:57.058Z,51.67
2019-04-05T12:49:37.960Z,53.37
2019-04-05T12:52:23.011Z,51.40
2019-04-05T12:55:01.464Z,51.00
2019-04-05T12:57:42.148Z,50.73
2019-04-05T13:00:23.638Z,54.17
2019-04-05T13:03:05.494Z,50.70
2019-04-05T13:05:46.783Z,52.23
2019-04-05T13:08:27.600Z,51.53
2019-04-05T13:11:08.419Z,50.80
2019-04-05T13:13:49.177Z,53.17
2019-04-05T13:16:29.599Z,52.60
2019-04-05T13:19:10.566Z,52.93
2019-04-05T13:21:51.317Z,54.23
2019-04-05T13:24:31.618Z,55.53
2019-04-05T13:27:12.511Z,55.20
2019-04-05T13:29:53.493Z,58.57
2019-04-05T13:32:34.558Z,49.27
2019-04-05T13:35:16.849Z,49.73
2019-04-05T13:37:58.544Z,54.53
2019-04-05T13:40:40.879Z,54.73
2019-04-05T13:43:21.714Z,51.50
2019-04-05T13:46:02.465Z,53.33
2019-04-05T13:48:43.217Z,55.00
2019-04-05T13:51:28.238Z,53.80
2019-04-05T13:54:06.359Z,50.97
2019-04-05T13:56:47.159Z,49.03
2019-04-05T13:59:28.334Z,51.63
2019-04-05T14:02:09.264Z,50.73
2019-04-05T14:04:53.618Z,55.03
2019-04-05T14:07:34.255Z,53.17
2019-04-05T14:10:14.994Z,49.17
2019-04-05T14:12:55.416Z,52.00
2019-04-05T14:18:20.664Z,55.83
2019-04-05T14:21:01.416Z,51.23
2019-04-05T14:23:41.932Z,52.23
2019-04-05T14:26:22.516Z,57.23
2019-04-05T14:29:03.672Z,49.67
2019-04-05T14:31:44.591Z,49.33
2019-04-05T14:34:25.244Z,49.17
2019-04-05T14:37:05.722Z,51.30
2019-04-05T14:39:46.402Z,53.80
2019-04-05T14:42:29.693Z,51.40
2019-04-05T14:45:10.041Z,54.77
2019-04-05T14:47:50.691Z,51.50
2019-04-05T14:50:31.332Z,51.67
2019-04-05T14:53:12.246Z,52.57
2019-04-05T14:55:52.603Z,52.97
2019-04-05T14:58:33.331Z,55.93
2019-04-05T15:01:15.529Z,53.00
2019-04-05T15:03:56.183Z,54.57
2019-04-05T15:06:37.070Z,49.80
2019-04-05T15:09:21.826Z,52.83
2019-04-05T15:12:00.654Z,54.70
2019-04-05T15:14:41.001Z,48.47
2019-04-05T15:17:21.968Z,53.93
2019-04-05T15:20:04.761Z,53.60
2019-04-05T15:22:45.190Z,53.70
2019-04-05T15:25:26.056Z,52.07
2019-04-05T15:28:06.935Z,52.03
2019-04-05T15:30:49.564Z,53.53
2019-04-05T15:33:30.575Z,54.50
2019-04-05T15:36:11.115Z,50.80
2019-04-05T15:38:51.611Z,49.30
2019-04-05T15:41:32.208Z,49.77
2019-04-05T15:44:12.971Z,55.63
2019-04-05T15:46:53.576Z,51.33
2019-04-05T15:49:34.275Z,50.60
2019-04-05T15:52:19.029Z,54.60
2019-04-05T15:54:58.071Z,49.70
2019-04-05T15:57:26.572Z,51.80
2019-04-05T16:03:09.555Z,45.97
2019-04-05T16:05:50.614Z,50.30
2019-04-05T16:08:31.642Z,51.37
2019-04-05T16:11:12.446Z,52.00
2019-04-05T16:13:53.243Z,52.33
2019-04-05T16:16:34.048Z,48.87
2019-04-05T16:19:15.156Z,50.67
2019-04-05T16:21:55.502Z,51.97
2019-04-05T16:24:36.295Z,54.93
2019-04-05T16:27:16.897Z,52.23
2019-04-05T16:29:57.546Z,50.47
2019-04-05T16:32:38.205Z,50.53
2019-04-05T16:35:19.148Z,50.53
2019-04-05T16:38:00.071Z,53.53
2019-04-05T16:40:40.826Z,53.37
2019-04-05T16:43:21.982Z,53.60
2019-04-05T16:46:02.715Z,56.63
2019-04-05T16:48:43.271Z,52.13
2019-04-05T16:51:24.139Z,54.87
2019-04-05T16:54:04.759Z,51.10
2019-04-05T16:56:45.527Z,48.03
2019-04-05T16:59:26.088Z,54.90
2019-04-05T17:02:07.000Z,54.10
2019-04-05T17:04:47.728Z,47.80
2019-04-05T17:07:28.763Z,55.70
2019-04-05T17:10:09.259Z,52.17
2019-04-05T17:12:49.937Z,50.50
2019-04-05T17:15:30.434Z,52.97
2019-04-05T17:18:10.976Z,52.27
2019-04-05T17:20:51.624Z,47.63
2019-04-05T17:23:33.246Z,54.07
2019-04-05T17:26:13.986Z,53.67
2019-04-05T17:28:42.470Z,57.00
2019-04-05T17:31:10.939Z,51.27
2019-04-05T17:33:39.446Z,50.37
2019-04-05T17:36:07.914Z,49.70
2019-04-05T17:38:36.375Z,50.83
2019-04-05T17:41:04.922Z,53.40
2019-04-05T17:43:33.369Z,54.37
2019-04-05T17:46:01.854Z,51.63
2019-04-05T17:48:30.321Z,51.00
2019-04-05T17:50:58.856Z,52.53
2019-04-05T17:53:27.326Z,54.23
2019-04-05T17:55:58.840Z,56.60
2019-04-05T17:58:28.062Z,52.27
2019-04-05T18:00:56.536Z,55.20
2019-04-05T18:03:25.012Z,55.20
2019-04-05T18:05:53.536Z,53.93
2019-04-05T18:08:21.990Z,63.37
2019-04-05T18:10:50.458Z,53.13
2019-04-05T18:13:18.954Z,50.10
2019-04-05T18:15:52.821Z,54.77
2019-04-05T18:18:17.580Z,50.83
2019-04-05T18:20:46.056Z,54.57
2019-04-05T18:23:24.402Z,56.60
2019-04-05T18:25:44.691Z,50.07
2019-04-05T18:28:13.163Z,55.07
2019-04-05T18:30:41.639Z,54.60
2019-04-05T18:33:10.086Z,52.17
2019-04-05T18:35:38.574Z,49.47
2019-04-05T18:38:07.044Z,50.83
2019-04-05T18:40:40.375Z,59.80
2019-04-05T18:43:05.797Z,55.97
2019-04-05T18:45:34.346Z,55.40
2019-04-05T18:48:02.874Z,57.53
2019-04-05T18:50:31.346Z,60.70
2019-04-05T18:52:59.802Z,60.20
2019-04-05T18:55:28.272Z,57.63
2019-04-05T18:57:56.791Z,56.33
2019-04-05T19:00:25.305Z,53.93
2019-04-05T19:02:53.754Z,54.20
2019-04-05T19:05:22.267Z,52.27
2019-04-05T19:07:50.714Z,55.23
2019-04-05T19:10:19.203Z,54.67
2019-04-05T19:12:47.807Z,55.03
2019-04-05T19:15:16.434Z,58.17
2019-04-05T19:17:44.943Z,53.27
2019-04-05T19:20:13.589Z,55.77
2019-04-05T19:22:42.038Z,55.20
2019-04-05T19:25:10.760Z,56.73
2019-04-05T19:27:39.237Z,56.50
2019-04-05T19:50:10.994Z,55.13
2019-04-05T19:52:39.457Z,56.53
2019-04-05T19:55:08.184Z,54.10
2019-04-05T19:57:36.626Z,50.80
2019-04-05T20:00:07.043Z,51.03
2019-04-05T20:02:35.559Z,56.87
2019-04-05T20:05:05.869Z,52.97
2019-04-05T20:07:34.364Z,52.77
2019-04-05T20:10:02.971Z,53.30
2019-04-05T20:12:31.422Z,54.70
2019-04-05T20:14:59.894Z,52.30
2019-04-05T20:17:28.419Z,53.27
2019-04-05T20:19:56.902Z,53.63
2019-04-05T20:22:25.467Z,55.60
2019-04-05T20:24:53.929Z,55.87
2019-04-05T20:27:22.473Z,54.37
2019-04-05T20:29:50.973Z,52.97
2019-04-05T20:32:19.511Z,53.93
2019-04-05T20:34:48.003Z,51.60
2019-04-05T20:37:16.478Z,54.97
2019-04-05T20:39:45.002Z,52.77
2019-04-05T20:42:13.534Z,56.10
2019-04-05T20:44:42.063Z,53.27
2019-04-05T20:47:10.586Z,56.33
2019-04-05T20:49:39.045Z,56.63
2019-04-05T20:52:07.528Z,51.67
2019-04-05T20:54:36.047Z,55.27
2019-04-05T20:57:04.588Z,51.83
2019-04-05T20:59:33.032Z,51.70
2019-04-05T21:02:01.512Z,55.00
2019-04-05T21:04:30.094Z,57.43
2019-04-05T21:06:58.589Z,53.10
2019-04-05T21:09:27.030Z,58.97
2019-04-05T21:11:55.494Z,53.73
2019-04-05T21:14:23.972Z,53.63
2019-04-05T21:16:52.503Z,57.53
2019-04-05T21:19:20.968Z,53.80
2019-04-05T21:21:49.520Z,56.33
2019-04-05T21:24:17.958Z,57.37
2019-04-05T21:26:46.446Z,54.20
2019-04-05T21:29:14.899Z,55.63
2019-04-05T21:31:43.379Z,54.70
2019-04-05T21:34:11.810Z,57.57
2019-04-05T21:36:40.278Z,56.87
2019-04-05T21:39:08.731Z,54.20
2019-04-05T21:41:37.189Z,53.50
2019-04-05T21:44:05.726Z,54.97
2019-04-05T21:46:34.208Z,54.70
2019-04-05T21:49:02.654Z,53.00
2019-04-05T21:51:31.116Z,55.20
2019-04-05T21:53:59.571Z,52.20
2019-04-05T21:56:28.050Z,51.80
2019-04-05T21:58:56.502Z,54.13
2019-04-05T22:01:25.895Z,52.87
2019-04-05T22:03:54.488Z,58.30
2019-04-05T22:06:22.984Z,51.10
2019-04-05T22:08:51.503Z,53.50
2019-04-05T22:11:19.967Z,53.83
2019-04-05T22:13:48.409Z,50.50
2019-04-05T22:16:16.871Z,53.23
2019-04-05T22:18:45.439Z,49.43
2019-04-05T22:21:13.890Z,53.50
2019-04-05T22:23:42.340Z,54.83
2019-04-05T22:26:10.810Z,54.67
2019-04-05T22:28:39.269Z,52.90
2019-04-05T22:31:07.790Z,54.67
2019-04-05T22:33:36.420Z,53.87
2019-04-05T22:36:04.929Z,53.80
2019-04-05T22:38:33.445Z,53.27
2019-04-05T22:41:01.895Z,54.27
2019-04-05T22:43:30.374Z,57.67
2019-04-05T22:45:58.811Z,54.40
2019-04-05T22:48:27.310Z,51.13
2019-04-05T22:50:55.827Z,56.87
2019-04-05T22:53:24.294Z,53.77
2019-04-05T22:55:52.890Z,55.73
2019-04-05T22:58:21.349Z,52.77
2019-04-05T23:00:49.794Z,54.30
2019-04-05T23:03:18.261Z,57.27
2019-04-05T23:05:46.712Z,52.00
2019-04-05T23:08:15.213Z,51.13
2019-04-05T23:10:43.722Z,52.87
2019-04-05T23:13:12.195Z,53.20
2019-04-05T23:15:40.646Z,54.60
2019-04-05T23:18:09.111Z,55.50
2019-04-05T23:20:37.569Z,53.83
2019-04-05T23:23:06.022Z,49.67
2019-04-05T23:25:34.488Z,59.50
2019-04-05T23:28:02.951Z,52.53
2019-04-05T23:30:32.789Z,57.87
2019-04-05T23:33:01.246Z,51.10
2019-04-05T23:35:29.690Z,53.27
2019-04-05T23:37:58.214Z,56.77
2019-04-05T23:40:26.650Z,54.27
2019-04-05T23:42:55.105Z,55.07
2019-04-05T23:45:23.537Z,57.40
2019-04-05T23:47:51.998Z,59.93
2019-04-05T23:50:20.446Z,52.97
2019-04-05T23:52:48.928Z,54.33
2019-04-05T23:55:17.362Z,52.67
2019-04-05T23:57:45.831Z,52.90
